Time;durP1;ratioP1;P1;durP2;ratioP2;P2;SDS_P1;SDS_P2;PMS_P1;PMS_P2;Temp;Humidity;BMP_temperature;BMP_pressure;BME280_temperature;BME280_humidity;BME280_pressure;Samples;Min_cycle;Max_cycle;Signal;HPM_P1;HPM_P2
2021/08/01 00:02:08;;;;;;;4.95;2.00;;;20.50;91.90;;;;;;5010562;28;20029;-86
2021/08/01 00:04:33;;;;;;;5.20;1.90;;;20.50;91.80;;;;;;5009678;28;20055;-86
2021/08/01 00:06:59;;;;;;;3.05;1.70;;;20.50;91.70;;;;;;5027117;28;20067;-86
2021/08/01 00:09:25;;;;;;;3.78;1.60;;;20.40;91.50;;;;;;5009602;28;20491;-85
2021/08/01 00:11:50;;;;;;;3.03;1.70;;;20.50;91.40;;;;;;5027653;28;20040;-89
2021/08/01 00:14:16;;;;;;;7.07;1.98;;;20.40;91.30;;;;;;5009557;28;20045;-86
2021/08/01 00:16:41;;;;;;;2.75;1.77;;;20.40;91.40;;;;;;5028159;28;20036;-86
2021/08/01 00:19:07;;;;;;;3.33;1.63;;;20.40;91.50;;;;;;5009723;28;20113;-88
2021/08/01 00:21:33;;;;;;;5.78;1.77;;;20.40;91.50;;;;;;5009349;28;20517;-87
2021/08/01 00:23:58;;;;;;;3.35;2.00;;;20.40;91.60;;;;;;5009234;28;20120;-87
2021/08/01 00:26:24;;;;;;;3.17;1.88;;;20.40;91.70;;;;;;5009439;28;20498;-86
2021/08/01 00:28:50;;;;;;;3.03;2.00;;;20.40;91.90;;;;;;5027189;28;20052;-88
2021/08/01 00:31:15;;;;;;;3.95;2.08;;;20.30;92.00;;;;;;5026989;28;20034;-86
2021/08/01 00:33:41;;;;;;;6.35;2.53;;;20.30;92.20;;;;;;5009190;28;20049;-85
2021/08/01 00:36:06;;;;;;;3.38;1.60;;;20.40;92.30;;;;;;5027291;28;20048;-85
2021/08/01 00:38:32;;;;;;;2.75;1.80;;;20.40;92.50;;;;;;5008694;28;20882;-89
2021/08/01 00:40:58;;;;;;;3.33;2.13;;;20.30;92.80;;;;;;5009112;28;20031;-87
2021/08/01 00:43:24;;;;;;;8.82;2.38;;;20.30;93.00;;;;;;5026689;28;20033;-86
2021/08/01 00:45:50;;;;;;;3.80;2.25;;;20.30;93.30;;;;;;5026647;28;20037;-80
2021/08/01 00:48:15;;;;;;;9.73;2.72;;;20.30;93.50;;;;;;5027112;28;20055;-85
2021/08/01 00:50:43;;;;;;;4.15;2.67;;;20.40;93.70;;;;;;5027044;28;20486;-86
2021/08/01 00:53:09;;;;;;;3.97;2.42;;;20.50;93.80;;;;;;5008555;28;20091;-87
2021/08/01 00:55:35;;;;;;;5.65;3.30;;;20.50;93.80;;;;;;5026647;28;20030;-84
2021/08/01 00:58:01;;;;;;;7.40;3.15;;;20.60;93.80;;;;;;5008560;28;20128;-83
2021/08/01 01:03:00;;;;;;;4.65;3.28;;;20.80;94.10;;;;;;5026195;28;20033;-85
2021/08/01 01:05:34;;;;;;;4.72;3.13;;;20.90;94.00;;;;;;5008360;28;20465;-85
2021/08/01 01:08:38;;;;;;;6.53;3.00;;;20.90;94.00;;;;;;5025831;28;20101;-86
2021/08/01 01:11:05;;;;;;;6.22;3.33;;;20.90;93.90;;;;;;5008445;28;20136;-86
2021/08/01 01:13:37;;;;;;;6.00;3.22;;;21.00;93.90;;;;;;5008716;28;20135;-86
2021/08/01 01:16:03;;;;;;;6.68;3.75;;;20.90;93.90;;;;;;5026393;28;20731;-87
2021/08/01 01:18:35;;;;;;;6.50;3.40;;;21.00;94.00;;;;;;5008134;28;20029;-85
2021/08/01 01:21:21;;;;;;;6.13;3.97;;;21.00;94.10;;;;;;5008408;28;20027;-84
2021/08/01 01:24:03;;;;;;;5.53;3.58;;;21.00;94.10;;;;;;5026592;28;20108;-84
2021/08/01 01:26:41;;;;;;;5.15;3.17;;;21.00;94.20;;;;;;5026328;28;20061;-85
2021/08/01 01:29:06;;;;;;;3.75;1.95;;;20.90;93.70;;;;;;5008190;28;20067;-84
2021/08/01 01:31:48;;;;;;;3.88;2.85;;;20.80;93.70;;;;;;5026159;28;20049;-83
2021/08/01 01:34:23;;;;;;;7.30;2.60;;;20.70;93.90;;;;;;5025921;28;20037;-82
2021/08/01 01:36:51;;;;;;;3.30;2.80;;;20.60;94.10;;;;;;5009781;28;20026;-87
2021/08/01 01:39:19;;;;;;;4.80;3.38;;;20.50;94.30;;;;;;5030038;28;20060;-82
2021/08/01 01:41:47;;;;;;;6.60;4.05;;;20.40;94.80;;;;;;5012325;28;20087;-86
2021/08/01 01:44:13;;;;;;;4.78;3.42;;;20.40;95.60;;;;;;5011967;28;20037;-85
2021/08/01 01:46:39;;;;;;;5.50;3.17;;;20.30;95.40;;;;;;5012068;28;20544;-83
2021/08/01 01:49:10;;;;;;;4.35;3.22;;;20.30;95.40;;;;;;5011932;28;20054;-86
2021/08/01 01:51:38;;;;;;;4.18;3.20;;;20.30;95.50;;;;;;4998403;28;20510;-83
2021/08/01 01:54:06;;;;;;;10.18;4.40;;;20.20;95.80;;;;;;5012723;28;20056;-84
2021/08/01 01:56:34;;;;;;;5.38;4.32;;;20.20;96.20;;;;;;5014407;28;20115;-84
2021/08/01 01:59:01;;;;;;;8.48;4.00;;;20.20;96.40;;;;;;5001855;28;20041;-82
2021/08/01 02:01:27;;;;;;;3.45;3.10;;;20.20;96.40;;;;;;5006479;28;20048;-85
2021/08/01 02:03:53;;;;;;;4.82;3.28;;;20.20;96.00;;;;;;5031979;28;20042;-87
2021/08/01 02:06:19;;;;;;;4.53;3.13;;;20.20;95.80;;;;;;5028433;28;20546;-85
2021/08/01 02:08:45;;;;;;;7.47;3.05;;;20.20;95.60;;;;;;5015495;28;20510;-82
2021/08/01 02:11:12;;;;;;;3.83;2.80;;;20.20;95.60;;;;;;5009597;28;20038;-85
2021/08/01 02:13:55;;;;;;;5.57;3.60;;;20.20;95.60;;;;;;5003851;28;20037;-86
2021/08/01 02:16:28;;;;;;;7.80;3.05;;;20.20;95.80;;;;;;5008427;28;20116;-84
2021/08/01 02:18:57;;;;;;;11.90;3.28;;;20.20;95.50;;;;;;5028709;28;20473;-86
2021/08/01 02:21:23;;;;;;;3.83;2.95;;;20.30;95.40;;;;;;5007490;28;20056;-85
2021/08/01 02:23:51;;;;;;;4.15;3.67;;;20.30;95.20;;;;;;5004238;28;20047;-86
2021/08/01 02:26:19;;;;;;;6.57;3.40;;;20.40;95.10;;;;;;5010759;28;20033;-85
2021/08/01 02:28:47;;;;;;;7.60;3.25;;;20.40;94.80;;;;;;5005479;28;20041;-86
2021/08/01 02:31:13;;;;;;;4.25;2.80;;;20.60;94.80;;;;;;5006328;28;20462;-84
2021/08/01 02:33:40;;;;;;;10.75;3.70;;;20.70;95.00;;;;;;5011390;28;20577;-85
2021/08/01 02:36:07;;;;;;;5.80;3.40;;;20.80;95.30;;;;;;5009146;28;20041;-85
2021/08/01 02:38:34;;;;;;;5.72;3.88;;;20.80;95.20;;;;;;5010914;28;20940;-86
2021/08/01 02:41:14;;;;;;;5.85;3.53;;;20.90;95.30;;;;;;5011848;28;20037;-85
2021/08/01 02:43:41;;;;;;;4.20;2.83;;;21.00;95.30;;;;;;5028841;28;20022;-85
2021/08/01 02:46:08;;;;;;;10.85;3.38;;;21.00;95.00;;;;;;5010656;28;20215;-87
2021/08/01 02:48:35;;;;;;;10.57;3.45;;;21.10;94.90;;;;;;5010003;28;20088;-86
2021/08/01 02:51:04;;;;;;;8.15;3.58;;;21.00;95.10;;;;;;5010358;28;20026;-83
2021/08/01 02:53:34;;;;;;;6.47;3.28;;;21.00;95.60;;;;;;5010174;28;20124;-87
2021/08/01 02:56:03;;;;;;;6.68;3.70;;;21.00;95.90;;;;;;5010770;28;20029;-86
2021/08/01 02:58:30;;;;;;;6.82;4.43;;;20.80;96.80;;;;;;5010357;28;20025;-83
2021/08/01 03:00:57;;;;;;;8.68;5.95;;;20.80;97.40;;;;;;5010134;28;20050;-87
2021/08/01 03:03:24;;;;;;;12.65;6.50;;;20.70;99.10;;;;;;5027750;28;20036;-85
2021/08/01 03:05:50;;;;;;;7.88;5.70;;;20.70;99.60;;;;;;5010436;28;20289;-86
2021/08/01 03:08:16;;;;;;;7.75;6.43;;;20.70;99.90;;;;;;5010096;28;20035;-87
2021/08/01 03:10:43;;;;;;;8.73;6.78;;;20.80;99.90;;;;;;5010538;28;20108;-86
2021/08/01 03:13:09;;;;;;;8.63;6.25;;;20.70;99.90;;;;;;5010256;28;20037;-84
2021/08/01 03:15:35;;;;;;;6.78;6.00;;;20.70;99.90;;;;;;5028173;28;20036;-81
2021/08/01 03:18:00;;;;;;;12.02;6.03;;;20.70;99.90;;;;;;5009864;28;20036;-86
2021/08/01 03:20:26;;;;;;;6.82;5.32;;;20.60;99.90;;;;;;5010036;28;20064;-84
2021/08/01 03:22:51;;;;;;;7.43;5.10;;;20.60;99.90;;;;;;5010790;28;20033;-86
2021/08/01 03:25:17;;;;;;;13.50;5.03;;;20.50;99.90;;;;;;5027440;28;20486;-85
2021/08/01 03:27:43;;;;;;;8.07;4.80;;;20.40;99.90;;;;;;5027982;28;20025;-85
2021/08/01 03:30:09;;;;;;;6.18;5.13;;;20.40;99.90;;;;;;5010202;28;20120;-86
2021/08/01 03:32:35;;;;;;;6.22;5.15;;;20.30;99.90;;;;;;5009730;28;20128;-85
2021/08/01 03:35:01;;;;;;;9.43;6.15;;;20.30;99.90;;;;;;5027454;28;20913;-84
2021/08/01 03:37:27;;;;;;;7.28;5.55;;;20.20;99.90;;;;;;5027286;28;20049;-86
2021/08/01 03:39:53;;;;;;;9.25;6.45;;;20.30;99.90;;;;;;5009959;28;20033;-87
2021/08/01 03:42:19;;;;;;;8.45;6.10;;;20.30;99.90;;;;;;5027590;28;20078;-85
2021/08/01 03:44:45;;;;;;;7.43;5.70;;;20.50;99.90;;;;;;5027022;28;20687;-81
2021/08/01 03:47:10;;;;;;;7.10;5.82;;;20.50;99.90;;;;;;5008830;28;20028;-86
2021/08/01 03:49:36;;;;;;;10.32;6.07;;;20.60;99.90;;;;;;5009451;28;20240;-85
2021/08/01 03:52:02;;;;;;;6.32;5.72;;;20.70;99.90;;;;;;5010405;28;20061;-83
2021/08/01 03:54:28;;;;;;;7.07;5.88;;;20.60;99.90;;;;;;5027326;28;20071;-85
2021/08/01 03:56:53;;;;;;;7.18;5.53;;;20.70;99.90;;;;;;5009587;28;20391;-84
2021/08/01 03:59:19;;;;;;;7.60;5.85;;;20.70;99.90;;;;;;5008587;28;20401;-86
2021/08/01 04:01:45;;;;;;;8.27;5.80;;;20.80;99.90;;;;;;5008806;28;20021;-84
2021/08/01 04:04:11;;;;;;;11.73;6.57;;;20.80;99.90;;;;;;5027185;28;20029;-84
2021/08/01 04:06:36;;;;;;;8.75;6.60;;;21.00;99.90;;;;;;5008834;28;20036;-86
2021/08/01 04:09:06;;;;;;;10.48;7.68;;;21.10;99.90;;;;;;5027042;28;20036;-85
2021/08/01 04:11:37;;;;;;;9.57;6.65;;;21.20;99.90;;;;;;5009216;28;20481;-84
2021/08/01 04:14:03;;;;;;;8.05;6.20;;;21.50;99.60;;;;;;5026507;28;20037;-84
2021/08/01 04:16:29;;;;;;;9.70;6.50;;;21.80;99.10;;;;;;5026453;28;20441;-86
2021/08/01 04:18:55;;;;;;;12.82;6.63;;;22.00;98.70;;;;;;5008760;28;20035;-84
2021/08/01 04:21:20;;;;;;;6.90;5.60;;;22.30;98.20;;;;;;5008715;28;20029;-85
2021/08/01 04:23:46;;;;;;;8.70;6.18;;;22.60;97.70;;;;;;5008855;28;20026;-84
2021/08/01 04:26:12;;;;;;;8.65;5.85;;;22.90;97.20;;;;;;5008806;28;20037;-82
2021/08/01 04:28:38;;;;;;;6.82;6.00;;;23.10;96.80;;;;;;5008867;28;20025;-84
2021/08/01 04:31:03;;;;;;;11.73;6.28;;;23.40;96.60;;;;;;5008050;28;20029;-84
2021/08/01 04:33:29;;;;;;;10.00;5.80;;;23.50;96.00;;;;;;5008824;28;20083;-83
2021/08/01 04:35:55;;;;;;;8.93;6.10;;;23.60;95.60;;;;;;5008307;28;20044;-81
2021/08/01 04:38:21;;;;;;;9.65;6.30;;;23.70;95.30;;;;;;5008186;28;20045;-84
2021/08/01 04:40:47;;;;;;;9.82;6.35;;;23.60;95.30;;;;;;5008888;28;20474;-83
2021/08/01 04:43:13;;;;;;;8.15;6.22;;;23.60;94.80;;;;;;5008287;28;20221;-80
2021/08/01 04:45:38;;;;;;;8.93;6.43;;;23.40;94.80;;;;;;5025533;28;20112;-84
2021/08/01 04:48:05;;;;;;;9.18;5.47;;;23.30;94.70;;;;;;5026299;28;20025;-82
2021/08/01 04:50:31;;;;;;;12.73;6.30;;;23.20;95.20;;;;;;5008356;28;20033;-82
2021/08/01 04:52:56;;;;;;;8.75;6.43;;;23.20;95.60;;;;;;5007806;28;20034;-84
2021/08/01 04:55:22;;;;;;;8.52;6.60;;;23.10;95.50;;;;;;5008764;28;20021;-80
2021/08/01 04:57:48;;;;;;;10.73;6.55;;;23.00;95.80;;;;;;5008464;28;20520;-79
2021/08/01 05:00:14;;;;;;;10.07;6.60;;;23.00;95.90;;;;;;5008225;28;20452;-85
2021/08/01 05:02:40;;;;;;;15.45;7.38;;;22.90;96.00;;;;;;5008235;28;20065;-85
2021/08/01 05:05:07;;;;;;;10.70;7.03;;;22.90;96.30;;;;;;5008312;28;20068;-82
2021/08/01 05:07:32;;;;;;;8.68;6.90;;;22.80;96.20;;;;;;5008622;28;20080;-85
2021/08/01 05:09:59;;;;;;;7.15;6.10;;;22.80;96.50;;;;;;5026452;28;20026;-83
2021/08/01 05:12:25;;;;;;;11.85;6.53;;;22.70;96.60;;;;;;5029979;28;20041;-85
2021/08/01 05:14:51;;;;;;;15.13;6.70;;;22.70;96.80;;;;;;5012675;28;20540;-85
2021/08/01 05:17:17;;;;;;;12.13;7.32;;;22.70;96.90;;;;;;5012039;28;20057;-85
2021/08/01 05:19:43;;;;;;;8.52;6.30;;;22.60;97.20;;;;;;5029617;28;20550;-82
2021/08/01 05:22:09;;;;;;;10.00;6.78;;;22.60;97.60;;;;;;5030329;28;20104;-84
2021/08/01 05:24:39;;;;;;;15.07;7.53;;;22.50;97.70;;;;;;5011887;28;20485;-87
2021/08/01 05:27:06;;;;;;;17.80;10.15;;;22.50;98.00;;;;;;5012068;28;20087;-85
2021/08/01 05:29:32;;;;;;;16.38;9.10;;;22.50;99.20;;;;;;5011875;28;20032;-85
2021/08/01 05:31:57;;;;;;;11.88;8.65;;;22.40;99.90;;;;;;5012159;28;20041;-85
2021/08/01 05:34:23;;;;;;;17.92;10.20;;;22.20;99.90;;;;;;5029290;28;20100;-84
2021/08/01 05:36:49;;;;;;;19.00;10.73;;;21.90;99.90;;;;;;5030057;28;20087;-85
2021/08/01 05:39:15;;;;;;;16.67;10.07;;;21.70;99.90;;;;;;5012003;28;20619;-84
2021/08/01 05:41:41;;;;;;;14.73;11.93;;;21.70;99.90;;;;;;5012008;28;20033;-85
2021/08/01 05:44:07;;;;;;;12.70;10.15;;;21.70;99.90;;;;;;5011624;28;20026;-85
2021/08/01 05:46:32;;;;;;;11.45;10.05;;;21.70;99.90;;;;;;5012038;28;20025;-85
2021/08/01 05:48:58;;;;;;;11.13;9.73;;;21.70;99.90;;;;;;5011371;28;20021;-85
2021/08/01 05:51:24;;;;;;;11.10;9.80;;;21.70;99.90;;;;;;5029985;28;20036;-83
2021/08/01 05:53:50;;;;;;;12.05;9.45;;;21.90;99.90;;;;;;5011406;28;20108;-83
2021/08/01 05:56:16;;;;;;;16.30;10.27;;;22.10;99.90;;;;;;5011566;28;20199;-85
2021/08/01 05:58:42;;;;;;;14.55;9.25;;;22.40;99.90;;;;;;5011835;28;20048;-85
2021/08/01 06:01:16;;;;;;;15.77;9.82;;;22.60;99.90;;;;;;5028960;28;20024;-86
2021/08/01 06:03:43;;;;;;;11.52;8.80;;;22.70;99.90;;;;;;5011543;28;20037;-85
2021/08/01 06:06:11;;;;;;;12.95;8.07;;;22.70;99.90;;;;;;5011597;28;20030;-85
2021/08/01 06:08:36;;;;;;;14.82;8.98;;;22.70;99.90;;;;;;5011567;28;20037;-85
2021/08/01 06:11:04;;;;;;;13.80;8.73;;;22.80;99.90;;;;;;5011353;28;20033;-84
2021/08/01 06:13:30;;;;;;;10.45;8.30;;;22.90;99.90;;;;;;5011088;28;20494;-84
2021/08/01 06:15:56;;;;;;;11.18;8.30;;;23.00;99.90;;;;;;5011219;28;20036;-83
2021/08/01 06:18:21;;;;;;;16.55;9.68;;;23.20;99.90;;;;;;5010988;28;20033;-83
2021/08/01 06:20:47;;;;;;;13.10;10.05;;;23.30;99.90;;;;;;5011459;28;20386;-81
2021/08/01 06:23:12;;;;;;;9.55;8.55;;;23.90;98.80;;;;;;5010657;28;20040;-82
2021/08/01 06:25:38;;;;;;;11.68;9.55;;;24.60;97.10;;;;;;5011044;28;20053;-81
2021/08/01 06:28:05;;;;;;;12.57;8.75;;;25.20;96.00;;;;;;5029193;28;20029;-80
2021/08/01 06:30:31;;;;;;;10.00;7.63;;;26.00;94.10;;;;;;5028918;28;20124;-80
2021/08/01 06:32:56;;;;;;;11.13;8.45;;;27.10;92.00;;;;;;5010241;28;20052;-80
2021/08/01 06:35:22;;;;;;;13.98;8.68;;;27.40;90.30;;;;;;5011255;28;20605;-80
2021/08/01 06:37:48;;;;;;;11.00;8.95;;;27.50;89.40;;;;;;5010934;28;20506;-80
2021/08/01 06:40:16;;;;;;;11.43;9.80;;;27.70;89.00;;;;;;5010819;28;20399;-80
2021/08/01 06:42:42;;;;;;;12.52;7.97;;;28.40;85.80;;;;;;5010838;28;20391;-80
2021/08/01 06:45:08;;;;;;;9.45;7.50;;;28.90;84.80;;;;;;5010481;28;20529;-83
2021/08/01 06:47:34;;;;;;;14.82;7.80;;;29.50;81.90;;;;;;5010044;28;20026;-82
2021/08/01 06:50:00;;;;;;;8.82;6.43;;;30.30;77.80;;;;;;5027746;28;20017;-83
2021/08/01 06:52:26;;;;;;;10.50;7.18;;;30.50;74.20;;;;;;5010354;28;20037;-82
2021/08/01 06:54:51;;;;;;;12.43;6.65;;;31.10;72.40;;;;;;5010722;28;20116;-82
2021/08/01 06:57:17;;;;;;;10.00;8.15;;;31.40;70.10;;;;;;5028213;28;20267;-81
2021/08/01 06:59:43;;;;;;;8.90;7.03;;;31.40;70.60;;;;;;5009945;28;20486;-82
2021/08/01 07:02:08;;;;;;;8.02;6.18;;;31.50;68.10;;;;;;5010421;28;20482;-82
2021/08/01 07:04:34;;;;;;;7.47;6.30;;;31.30;69.30;;;;;;5027697;28;20028;-82
2021/08/01 07:07:00;;;;;;;8.23;6.30;;;31.40;68.40;;;;;;5010389;28;20040;-81
2021/08/01 07:09:25;;;;;;;12.48;6.55;;;30.90;69.40;;;;;;5010517;28;20564;-83
2021/08/01 07:11:52;;;;;;;10.88;6.07;;;30.70;68.90;;;;;;5010420;28;20076;-81
2021/08/01 07:14:17;;;;;;;7.03;6.05;;;30.30;70.50;;;;;;5009670;28;20159;-82
2021/08/01 07:16:44;;;;;;;9.45;5.93;;;30.20;71.90;;;;;;5028165;28;20554;-80
2021/08/01 07:19:10;;;;;;;13.77;6.35;;;29.90;72.60;;;;;;5010055;28;20036;-82
2021/08/01 07:21:35;;;;;;;15.90;6.65;;;29.70;73.10;;;;;;5009922;28;20041;-82
2021/08/01 07:24:01;;;;;;;11.70;6.13;;;29.20;74.10;;;;;;5010138;28;20029;-81
2021/08/01 07:26:27;;;;;;;12.82;6.40;;;28.80;75.70;;;;;;5009890;28;20490;-82
2021/08/01 07:28:52;;;;;;;9.05;7.18;;;28.60;77.10;;;;;;5010090;28;20026;-81
2021/08/01 07:31:18;;;;;;;11.60;6.50;;;28.30;78.40;;;;;;5027573;28;20061;-82
2021/08/01 07:33:43;;;;;;;12.27;6.45;;;28.10;79.70;;;;;;5008889;28;20042;-82
2021/08/01 07:36:09;;;;;;;20.75;7.45;;;28.10;80.50;;;;;;5009901;28;20553;-82
2021/08/01 07:38:35;;;;;;;8.70;7.05;;;28.10;79.80;;;;;;5009750;28;20115;-81
2021/08/01 07:41:01;;;;;;;19.30;7.13;;;27.90;80.60;;;;;;5027620;28;20049;-81
2021/08/01 07:43:26;;;;;;;12.30;7.05;;;27.70;80.60;;;;;;5027590;28;20029;-80
2021/08/01 07:45:52;;;;;;;8.60;6.30;;;27.70;80.60;;;;;;5027875;28;20041;-81
2021/08/01 07:48:18;;;;;;;12.57;7.43;;;27.30;83.70;;;;;;5009323;28;20034;-80
2021/08/01 07:50:43;;;;;;;7.97;7.18;;;27.00;84.30;;;;;;5010097;28;20577;-82
2021/08/01 07:53:09;;;;;;;10.52;7.25;;;26.90;85.90;;;;;;5009422;28;20033;-80
2021/08/01 07:55:35;;;;;;;12.05;7.35;;;26.70;85.80;;;;;;5009678;28;20034;-82
2021/08/01 07:58:01;;;;;;;12.57;7.00;;;26.60;87.10;;;;;;5009921;28;20026;-82
2021/08/01 08:00:26;;;;;;;11.00;7.22;;;26.30;88.00;;;;;;5010082;28;20043;-82
2021/08/01 08:02:52;;;;;;;9.93;7.82;;;26.10;88.70;;;;;;5027105;28;20090;-82
2021/08/01 08:05:17;;;;;;;13.75;8.15;;;25.90;90.00;;;;;;5009407;28;20033;-82
2021/08/01 08:07:43;;;;;;;12.30;8.25;;;25.60;90.70;;;;;;5027199;28;20037;-82
2021/08/01 08:10:10;;;;;;;11.77;7.38;;;25.40;91.30;;;;;;5009757;28;20026;-82
2021/08/01 08:12:36;;;;;;;8.48;7.47;;;25.40;92.00;;;;;;5009681;28;20044;-82
2021/08/01 08:15:02;;;;;;;9.13;7.22;;;25.30;92.20;;;;;;5027156;28;20026;-83
2021/08/01 08:17:33;;;;;;;9.43;6.40;;;25.30;92.40;;;;;;5026734;28;20037;-82
2021/08/01 08:19:59;;;;;;;11.60;7.28;;;25.20;91.80;;;;;;5009340;28;20026;-81
2021/08/01 08:22:24;;;;;;;16.83;8.82;;;25.10;91.90;;;;;;5009177;28;20074;-81
2021/08/01 08:24:50;;;;;;;10.77;6.07;;;25.00;93.30;;;;;;5009097;28;20409;-83
2021/08/01 08:27:16;;;;;;;13.13;7.68;;;24.90;92.30;;;;;;5009050;28;20041;-84
2021/08/01 08:29:41;;;;;;;12.77;7.20;;;24.60;93.40;;;;;;5026376;28;20022;-82
2021/08/01 08:32:07;;;;;;;9.75;6.50;;;24.20;95.70;;;;;;5026600;28;20041;-84
2021/08/01 08:34:33;;;;;;;9.43;6.65;;;24.00;96.90;;;;;;5008553;28;20037;-82
2021/08/01 08:37:01;;;;;;;12.15;7.60;;;23.80;97.60;;;;;;5008706;28;20064;-84
2021/08/01 08:39:28;;;;;;;17.63;7.28;;;23.60;98.50;;;;;;5008683;28;20025;-84
2021/08/01 08:41:57;;;;;;;13.63;7.18;;;23.40;99.40;;;;;;5008521;28;20487;-84
2021/08/01 08:44:23;;;;;;;16.58;8.23;;;23.20;99.90;;;;;;5026416;28;20100;-84
2021/08/01 08:46:50;;;;;;;14.18;8.25;;;23.00;99.90;;;;;;5008404;28;20137;-81
2021/08/01 08:49:16;;;;;;;13.63;8.43;;;22.80;99.90;;;;;;5026201;28;20029;-84
2021/08/01 08:51:44;;;;;;;14.75;7.90;;;22.60;99.90;;;;;;5008159;28;20037;-84
2021/08/01 08:54:30;;;;;;;12.13;7.80;;;22.50;99.90;;;;;;5008698;28;20033;-85
2021/08/01 08:56:56;;;;;;;12.20;7.60;;;22.40;99.90;;;;;;5007947;28;20044;-85
2021/08/01 08:59:23;;;;;;;10.35;7.45;;;22.30;99.90;;;;;;5008971;28;20472;-86
2021/08/01 09:01:49;;;;;;;10.25;8.32;;;22.30;99.90;;;;;;5008312;28;20116;-86
2021/08/01 09:04:15;;;;;;;15.75;9.27;;;22.30;99.90;;;;;;5008885;28;20152;-87
2021/08/01 09:06:41;;;;;;;10.18;8.35;;;22.40;99.90;;;;;;5009076;28;20364;-86
2021/08/01 09:09:09;;;;;;;13.48;8.00;;;22.50;99.90;;;;;;5008254;28;20021;-85
2021/08/01 09:11:35;;;;;;;10.82;7.93;;;22.60;99.90;;;;;;5009117;28;20025;-87
2021/08/01 09:14:00;;;;;;;9.18;7.20;;;22.70;99.90;;;;;;5008707;28;20465;-85
2021/08/01 09:16:44;;;;;;;10.52;7.07;;;22.90;99.90;;;;;;5008667;28;20046;-85
2021/08/01 09:19:31;;;;;;;7.18;6.40;;;23.50;99.90;;;;;;5008554;28;20026;-84
2021/08/01 09:22:18;;;;;;;6.78;5.07;;;24.10;98.00;;;;;;5008599;28;20033;-82
2021/08/01 09:24:51;;;;;;;6.65;5.05;;;24.70;96.30;;;;;;5008378;28;20033;-82
2021/08/01 09:27:28;;;;;;;5.50;4.00;;;25.00;94.50;;;;;;5008167;28;20611;-84
2021/08/01 09:29:54;;;;;;;5.15;4.05;;;24.90;93.00;;;;;;5009251;28;20029;-84
2021/08/01 09:32:20;;;;;;;5.65;4.63;;;24.70;94.70;;;;;;5008613;28;20519;-83
2021/08/01 09:34:47;;;;;;;6.65;3.88;;;24.90;94.90;;;;;;5009326;28;20037;-82
2021/08/01 09:37:14;;;;;;;4.03;3.63;;;25.70;94.30;;;;;;5009013;28;20017;-80
2021/08/01 09:39:42;;;;;;;5.25;3.50;;;26.70;91.20;;;;;;5026548;28;20115;-82
2021/08/01 09:42:09;;;;;;;3.97;2.58;;;27.40;86.50;;;;;;5026441;28;20029;-81
2021/08/01 09:44:39;;;;;;;5.22;3.20;;;28.00;87.20;;;;;;5008920;28;20029;-83
2021/08/01 09:47:06;;;;;;;2.90;2.60;;;28.50;82.70;;;;;;5008605;28;20033;-82
2021/08/01 09:49:32;;;;;;;4.15;3.10;;;29.00;78.10;;;;;;5009175;28;20022;-82
2021/08/01 09:52:04;;;;;;;3.05;2.75;;;29.00;77.60;;;;;;5008555;28;20090;-82
2021/08/01 09:54:49;;;;;;;3.00;2.50;;;29.00;76.50;;;;;;5009205;28;20036;-81
2021/08/01 09:57:19;;;;;;;3.15;2.63;;;29.10;75.00;;;;;;5008958;28;20626;-82
2021/08/01 09:59:48;;;;;;;3.90;2.63;;;29.20;74.70;;;;;;5012370;28;20120;-81
2021/08/01 10:02:14;;;;;;;6.63;3.15;;;29.50;75.00;;;;;;5029449;28;20036;-80
2021/08/01 10:04:42;;;;;;;6.82;2.67;;;29.20;74.60;;;;;;5029868;28;20068;-82
2021/08/01 10:07:13;;;;;;;3.92;2.67;;;29.10;73.70;;;;;;5011806;28;20033;-84
2021/08/01 10:09:41;;;;;;;8.23;2.60;;;29.00;75.70;;;;;;5012090;28;20025;-84
2021/08/01 10:12:08;;;;;;;4.80;2.45;;;28.90;76.60;;;;;;5011514;28;20033;-85
2021/08/01 10:14:35;;;;;;;3.28;2.15;;;28.90;76.30;;;;;;5029378;28;20048;-83
2021/08/01 10:17:02;;;;;;;4.57;2.35;;;28.60;77.30;;;;;;5011359;28;20026;-84
2021/08/01 10:19:29;;;;;;;4.88;2.53;;;28.40;77.00;;;;;;5012140;28;20037;-83
2021/08/01 10:21:58;;;;;;;4.10;2.33;;;28.40;76.90;;;;;;5029537;28;20110;-84
2021/08/01 10:24:37;;;;;;;3.50;2.70;;;28.20;77.00;;;;;;5012060;28;20513;-84
2021/08/01 10:27:05;;;;;;;3.08;2.70;;;28.10;78.60;;;;;;5029703;28;20021;-84
2021/08/01 10:29:47;;;;;;;8.40;2.53;;;28.20;79.80;;;;;;5011926;28;20124;-84
2021/08/01 10:32:16;;;;;;;2.67;2.22;;;28.20;78.10;;;;;;5011548;28;20220;-83
2021/08/01 10:35:01;;;;;;;3.67;2.70;;;28.10;76.60;;;;;;5011865;28;20069;-84
2021/08/01 10:37:31;;;;;;;5.60;3.25;;;28.00;77.10;;;;;;5011528;28;20038;-84
2021/08/01 10:39:58;;;;;;;5.88;2.95;;;27.70;78.60;;;;;;5011887;28;20127;-83
2021/08/01 10:42:27;;;;;;;3.65;2.63;;;27.70;79.80;;;;;;5011355;28;20033;-83
2021/08/01 10:44:53;;;;;;;4.25;2.58;;;27.70;79.80;;;;;;5012040;28;20037;-83
2021/08/01 10:47:20;;;;;;;6.63;3.42;;;27.70;79.40;;;;;;5028997;28;20022;-83
2021/08/01 10:49:49;;;;;;;4.50;3.20;;;27.70;79.20;;;;;;5011610;28;20034;-83
2021/08/01 10:52:19;;;;;;;5.43;2.65;;;27.60;82.20;;;;;;5011191;28;20056;-83
2021/08/01 10:54:58;;;;;;;5.38;2.80;;;27.70;80.50;;;;;;5011995;28;20037;-83
2021/08/01 10:57:25;;;;;;;5.57;3.00;;;27.70;80.40;;;;;;5010741;28;20025;-83
2021/08/01 10:59:50;;;;;;;6.57;3.58;;;27.60;81.40;;;;;;5028725;28;20040;-84
2021/08/01 11:02:18;;;;;;;4.40;3.78;;;27.60;81.20;;;;;;5010857;28;20033;-82
2021/08/01 11:04:46;;;;;;;6.68;3.42;;;27.50;83.60;;;;;;5028249;28;20029;-82
2021/08/01 11:07:32;;;;;;;4.85;3.28;;;27.40;84.30;;;;;;5010742;28;20028;-83
2021/08/01 11:10:17;;;;;;;9.65;3.65;;;27.40;87.80;;;;;;4997562;28;20038;-82
2021/08/01 11:12:44;;;;;;;5.03;3.15;;;27.40;85.30;;;;;;5010456;28;20041;-82
2021/08/01 11:15:11;;;;;;;5.68;3.80;;;27.30;85.80;;;;;;5028218;28;20037;-83
2021/08/01 11:17:43;;;;;;;5.03;3.45;;;27.50;84.30;;;;;;5010926;28;20037;-82
2021/08/01 11:20:24;;;;;;;6.40;3.10;;;27.50;83.10;;;;;;5028847;28;20640;-84
2021/08/01 11:22:53;;;;;;;4.80;3.33;;;27.60;82.80;;;;;;5010594;28;20037;-81
2021/08/01 11:25:35;;;;;;;5.38;3.20;;;27.70;82.30;;;;;;5010295;28;20025;-82
2021/08/01 11:28:12;;;;;;;3.90;2.97;;;27.80;82.50;;;;;;5009720;28;20064;-81
2021/08/01 11:30:53;;;;;;;3.60;2.70;;;27.90;82.80;;;;;;5009844;28;20461;-81
2021/08/01 11:33:44;;;;;;;5.07;3.45;;;28.10;80.40;;;;;;5010149;28;20213;-82
2021/08/01 11:36:12;;;;;;;5.38;3.60;;;28.20;80.20;;;;;;5028160;28;20029;-82
2021/08/01 11:38:58;;;;;;;5.10;3.70;;;28.30;78.30;;;;;;5006180;28;20407;-82
2021/08/01 11:41:27;;;;;;;7.15;3.53;;;28.30;80.30;;;;;;5006239;28;20411;-81
2021/08/01 11:43:59;;;;;;;6.28;3.50;;;28.50;77.00;;;;;;5006558;28;20026;-83
2021/08/01 11:46:25;;;;;;;4.82;3.83;;;28.60;77.30;;;;;;5007928;28;20025;-80
2021/08/01 11:49:01;;;;;;;5.25;3.95;;;28.60;77.70;;;;;;5007736;28;20410;-82
2021/08/01 11:51:28;;;;;;;3.95;3.28;;;28.80;76.20;;;;;;5008231;28;20518;-82
2021/08/01 11:53:54;;;;;;;5.55;3.20;;;28.70;76.60;;;;;;5006119;28;20105;-81
2021/08/01 11:56:20;;;;;;;3.65;3.13;;;28.70;76.50;;;;;;5007848;28;20030;-81
2021/08/01 11:58:53;;;;;;;9.63;3.83;;;28.90;76.50;;;;;;5007617;28;20038;-82
2021/08/01 12:01:21;;;;;;;5.15;3.17;;;28.90;75.50;;;;;;5007334;28;20029;-82
2021/08/01 12:03:51;;;;;;;4.68;3.30;;;28.90;73.60;;;;;;5007198;28;20597;-81
2021/08/01 12:06:39;;;;;;;5.65;3.58;;;28.80;73.40;;;;;;5007500;28;20026;-80
2021/08/01 12:09:18;;;;;;;4.90;3.65;;;28.80;73.90;;;;;;5006147;28;20034;-82
2021/08/01 12:11:45;;;;;;;8.70;3.70;;;28.90;75.60;;;;;;5005959;28;20022;-81
2021/08/01 12:14:11;;;;;;;6.03;4.15;;;29.00;75.70;;;;;;5007344;28;20030;-81
2021/08/01 12:16:49;;;;;;;11.13;4.38;;;29.00;73.80;;;;;;5005739;28;20026;-82
2021/08/01 12:19:17;;;;;;;8.43;4.57;;;29.10;73.10;;;;;;5005640;28;20034;-82
2021/08/01 12:21:43;;;;;;;6.63;3.72;;;29.10;74.70;;;;;;5005672;28;20506;-83
2021/08/01 12:24:34;;;;;;;5.20;3.42;;;29.30;71.60;;;;;;5005827;28;20499;-81
2021/08/01 12:27:03;;;;;;;5.15;3.55;;;29.10;72.00;;;;;;5005653;28;20033;-81
2021/08/01 12:29:30;;;;;;;6.57;3.88;;;29.00;72.30;;;;;;5005901;28;20034;-83
2021/08/01 12:31:57;;;;;;;5.55;3.58;;;29.00;73.20;;;;;;5006837;28;20036;-81
2021/08/01 12:34:23;;;;;;;6.35;3.70;;;29.00;73.60;;;;;;5005761;28;20517;-83
2021/08/01 12:36:49;;;;;;;23.40;4.35;;;29.00;72.30;;;;;;5006146;28;20034;-81
2021/08/01 12:39:18;;;;;;;5.63;3.95;;;29.10;72.90;;;;;;5005525;28;20084;-83
2021/08/01 12:41:50;;;;;;;6.10;4.10;;;28.90;73.10;;;;;;5005673;28;20022;-81
2021/08/01 12:44:18;;;;;;;5.95;3.55;;;28.90;73.70;;;;;;5006577;28;20118;-82
2021/08/01 12:46:45;;;;;;;8.90;3.65;;;28.80;74.20;;;;;;5005022;28;20062;-81
2021/08/01 12:49:12;;;;;;;4.25;3.85;;;28.80;73.70;;;;;;5005740;28;20580;-81
2021/08/01 12:51:42;;;;;;;7.65;3.70;;;28.60;73.70;;;;;;5004897;28;20161;-81